x

Virginia Beach 64 Nm East Of Virginia Beach, Va (44014) Wave Buoy

10:50am - Sat 5th Sep 2015 All times are EDT. -4 hours from GMT.

  • Sig Wave height 7.2ft
  • Swell Direction
  • Peak Period 8s
  • Average Period 5s
  • Wind
    25mph, 29mph gusts
  • Sea Temp 80°f
  • 空気 Temp 79°f
  • Sea Pressure 1018.7mb
  • Virginia Beach 64 Nm East Of Virginia Beach, Va
  • Virginia Beach 64 Nm East Of Virginia Beach, Va

More Historic Weather Station data

Upgrade to MSW Pro to gain access to the past 30 days of data for over 8000 Wavebouys and Weather Stations around the globe.

Join Pro

Comparision Forecast

View Surf forecast
   
Sat 09/05 10:50am 7ft 8s 5s 25 29 mph 1018.7mb 80f 79f
9:50am 8ft 8s 6s 22 29 mph 1018.4mb 80f 79f
8:50am 8ft 8s 6s 27 31 mph 1017.6mb 80f 79f
7:50am 6ft 6s 5s 25 29 mph 1017.5mb 80f 79f
6:50am 5ft 6s 5s 22 27 mph 1017.2mb 80f 79f
5:50am 5ft 6s 5s 25 29 mph 1016.4mb 80f 80f
4:50am 4ft 6s 4s 22 27 mph 1016.2mb 80f 80f
3:50am 4ft 6s 4s 20 25 mph 1015.8mb 80f 80f
2:50am 3.5ft 5s 4s 18 22 mph 1015.9mb 80f 80f
1:50am 3.5ft 5s 4s 18 22 mph 1016.6mb 80f 80f
12:50am 3.5ft 5s 4s 18 20 mph 1016.6mb 80f 80f
Fri 09/04 11:50pm 3.5ft 5s 4s 20 25 mph 1016.6mb 80f 80f
10:50pm 3.5ft 5s 4s 20 25 mph 1016.6mb 80f 80f
9:50pm 3.5ft 5s 4s 18 22 mph 1016.6mb 80f 80f
8:50pm 3.5ft 5s 4s 18 22 mph 1016.1mb 80f 80f
7:50pm 3.5ft 4s 4s 20 22 mph 1015.4mb 80f 80f
6:50pm 2.5ft 4s 4s 18 22 mph 1015.4mb 80f 80f
5:50pm 2.5ft 3s 3s 20 22 mph 1014.8mb 81f 81f
4:50pm 2ft 3s 3s 18 22 mph 1014.5mb 81f 81f
3:50pm 1.6ft 3s 4s 16 20 mph 1014.2mb 80f 80f
2:50pm 1.6ft 11s 3s 13 16 mph 1014.7mb 80f 80f
1:50pm 1.3ft 11s 4s 16 18 mph 1014.6mb 80f 80f
12:50pm 1.3ft 11s 4s 13 16 mph 1014.6mb 80f 80f
11:50am 1ft 12s 4s 11 13 mph 1014.7mb 80f 80f
10:50am 1.3ft 12s 5s 11 13 mph 1014.2mb 80f 80f
9:50am 1ft 7s 5s 9 11 mph 1013.8mb 79f 80f
8:50am 1ft 12s 5s 4
mph
1013.5mb 79f 79f
7:50am 1ft 12s 7s 4
mph
1013mb 79f 79f
6:50am 1ft 12s 7s 4 7 mph 1012.5mb 79f 79f
5:50am 1ft 12s 6s 4 7 mph 1011.9mb 79f 79f
4:50am 1ft 12s 6s 4
mph
1012mb 79f 79f
3:50am 1ft 9s 6s 4 7 mph 1011.8mb 79f 79f
2:50am 1ft 11s 6s 7 9 mph 1011.5mb 79f 79f
1:50am 1.3ft 12s 6s 7 9 mph 1011.5mb 79f 79f
12:50am 1.3ft 13s 6s 7
mph
1011.7mb 79f 79f
Thu 09/03 11:50pm 1.3ft 12s 6s 7
mph
1011.9mb 79f 79f
10:50pm 1ft 12s 6s 7
mph
1011.8mb 79f 79f
9:50pm 1ft 10s 5s 2 4 mph 1012mb 79f 79f
8:50pm 1.3ft 13s 5s 7
mph
1011.6mb 79f 79f
7:50pm 1.3ft 8s 5s 7 9 mph 1010.8mb 79f 79f
6:50pm 1.3ft 13s 5s 7
mph
1010.7mb 80f 79f
5:50pm 1.3ft 12s 4s 7
mph
1011mb 80f 80f
4:50pm 1.6ft 13s 4s 7 9 mph 1011.2mb 80f 79f
3:50pm 1.6ft 9s 4s 7 9 mph 1011.2mb 80f 79f
2:50pm 1.6ft 4s 4s 7
mph
1011.7mb 80f 79f
1:50pm 1.6ft 14s 4s 7 9 mph 1012.2mb 80f 79f
12:50pm 1.6ft 4s 4s 9
mph
1012.7mb 79f 79f
11:50am 1.6ft 13s 4s 11 13 mph 1012.8mb 79f 78f
10:50am 1.6ft 4s 4s 9 11 mph 1012.6mb 78f 78f
9:50am 2ft 13s 4s 11 13 mph 1012.5mb 78f 78f
8:50am 2ft 4s 4s 11 13 mph 1012.4mb 78f 78f
7:50am 2ft 4s 4s 11 13 mph 1012.4mb 79f 78f
6:50am 1.6ft 8s 4s 11
mph
1012.3mb 79f 77f
5:50am 2ft 8s 4s 11 13 mph 1012.2mb 79f 77f
4:50am 1.6ft 8s 4s 11 13 mph 1012.3mb 79f 77f
3:50am 1.6ft 14s 4s 11 13 mph 1012.5mb 79f 78f
2:50am 2ft 14s 4s 9 11 mph 1012.8mb 79f 78f
1:50am 1.3ft 9s 5s 13 16 mph 1013mb 79f 79f
12:50am 1.3ft 9s 5s 7 9 mph 1013.4mb 79f 79f
Wed 09/02 11:50pm 1.6ft 9s 6s 9 11 mph 1013.4mb 79f 79f
10:50pm 1.6ft 13s 6s 9 11 mph 1013.4mb 79f 79f
9:50pm 1.3ft 8s 5s 11 13 mph 1013.5mb 79f 80f
8:50pm 1.6ft 9s 6s 11 13 mph 1013.6mb 80f 80f
7:50pm 1.6ft 6s 6s 9 11 mph 1013.6mb 80f 80f
6:50pm 1.6ft 14s 6s 9 11 mph 1013.5mb 81f 80f
5:50pm 1.6ft 6s 6s 11
mph
1014.1mb 82f 80f
4:50pm 1.6ft 14s 6s 9 11 mph 1014.5mb 82f 81f
3:50pm 1.6ft 9s 6s 9
mph
1015mb 82f 81f
2:50pm 1.6ft 9s 7s 7
mph
1015.8mb 83f 81f
1:50pm 1.6ft 8s 7s 4 7 mph 1016.3mb 83f 80f
12:50pm 1.6ft 9s 6s 4 7 mph 1016.6mb 83f 80f
11:50am 1.6ft 7s 6s  -  2 mph 1016.9mb 82f 81f
10:50am 2ft 7s 6s 2
mph
1017mb 80f 79f
9:50am 1.6ft 7s 6s  -  2 mph 1017.1mb 79f 79f
8:50am 1.6ft 10s 6s 4
mph
1017.2mb 79f 78f
7:50am 1.6ft 7s 7s 4 7 mph 1017.3mb 78f 78f
6:50am 2ft 6s 7s 7
mph
1017.1mb 78f 77f
5:50am 2ft 10s 6s 7 9 mph 1016.8mb 78f 77f
4:50am 2ft 7s 6s 7
mph
1016.6mb 79f 77f
3:50am 2ft 7s 6s 4 7 mph 1016.8mb 79f 77f
2:50am 2ft 7s 6s 4 7 mph 1016.9mb 78f 77f
1:50am 2ft 6s 6s 4
mph
1017.3mb 78f 77f
12:50am 2ft 7s 6s 2 4 mph 1017.5mb 78f 77f
Tue 09/01 11:50pm 2ft 9s 6s 2
mph
1017.6mb 79f 78f
10:50pm 2ft 8s 6s  -  2 mph 1017.5mb 79f 78f
9:50pm 2ft 8s 6s 2
mph
1017.5mb 79f 78f
8:50pm 2ft 7s 6s 2 4 mph 1017.2mb 79f 78f
7:50pm 2ft 8s 6s 4
mph
1016.7mb 80f 78f
6:50pm 2ft 9s 6s 4 7 mph 1016.8mb 80f 79f
5:50pm 2ft 8s 6s 4 7 mph 1016.5mb 80f 79f
4:50pm 2.5ft 8s 6s 4 7 mph 1016.6mb 80f 78f